Time;durP1;ratioP1;P1;durP2;ratioP2;P2;SDS_P1;SDS_P2;PMS_P1;PMS_P2;Temp;Humidity;BMP_temperature;BMP_pressure;BME280_temperature;BME280_humidity;BME280_pressure;Samples;Min_cycle;Max_cycle;Signal;HPM_P1;HPM_P2
2022/07/29 00:02:00;;;;;;;3.67;3.38;;;;;;;;;;5048330;28;20229;-87
2022/07/29 00:04:29;;;;;;;4.00;3.70;;;;;;;;;;5034930;28;20217;-87
2022/07/29 00:06:56;;;;;;;3.42;3.17;;;;;;;;;;5034127;28;20259;-87
2022/07/29 00:09:37;;;;;;;3.83;3.47;;;;;;;;;;5034516;28;20206;-86
2022/07/29 00:15:07;;;;;;;3.83;3.45;;;;;;;;;;5024058;28;20190;-87
2022/07/29 00:17:34;;;;;;;3.38;3.17;;;;;;;;;;5041265;28;20205;-87
2022/07/29 00:20:02;;;;;;;4.13;3.30;;;;;;;;;;5036432;28;20289;-87
2022/07/29 00:22:32;;;;;;;3.80;3.50;;;;;;;;;;5039366;28;20237;-87
2022/07/29 00:25:01;;;;;;;3.78;3.47;;;;;;;;;;5043761;28;20206;-87
2022/07/29 00:27:36;;;;;;;4.15;3.85;;;;;;;;;;5035185;28;20213;-87
2022/07/29 00:30:17;;;;;;;3.85;3.55;;;;;;;;;;5048428;28;20201;-87
2022/07/29 00:33:02;;;;;;;3.83;3.53;;;;;;;;;;5038354;28;20341;-87
2022/07/29 00:35:50;;;;;;;3.80;3.50;;;;;;;;;;5035883;28;20213;-87
2022/07/29 00:38:22;;;;;;;3.70;3.40;;;;;;;;;;5049757;28;20725;-87
2022/07/29 00:40:57;;;;;;;3.50;3.20;;;;;;;;;;5039285;28;20201;-87
2022/07/29 00:43:27;;;;;;;3.60;3.30;;;;;;;;;;5049842;28;20290;-87
2022/07/29 00:46:18;;;;;;;3.67;3.38;;;;;;;;;;5041807;28;20217;-87
2022/07/29 00:49:03;;;;;;;3.67;3.38;;;;;;;;;;5042579;28;20201;-87
2022/07/29 00:51:30;;;;;;;3.70;3.40;;;;;;;;;;5037644;28;20313;-87
2022/07/29 00:53:58;;;;;;;3.28;3.08;;;;;;;;;;5036829;28;20245;-86
2022/07/29 00:56:35;;;;;;;3.47;3.17;;;;;;;;;;5040922;28;20197;-88
2022/07/29 00:59:09;;;;;;;3.88;3.58;;;;;;;;;;5044610;28;20252;-87
2022/07/29 01:01:38;;;;;;;3.95;3.55;;;;;;;;;;5053066;28;20248;-87
2022/07/29 01:04:07;;;;;;;3.70;3.40;;;;;;;;;;5045460;28;20290;-87
2022/07/29 01:06:37;;;;;;;3.50;3.30;;;;;;;;;;5034375;28;20212;-87
2022/07/29 01:09:08;;;;;;;3.60;3.40;;;;;;;;;;5040594;28;20198;-87
2022/07/29 01:11:39;;;;;;;3.70;3.45;;;;;;;;;;5033617;28;20279;-87
2022/07/29 01:14:07;;;;;;;3.38;3.17;;;;;;;;;;5047277;28;20261;-87
2022/07/29 01:16:39;;;;;;;3.47;3.25;;;;;;;;;;5046176;28;20209;-87
2022/07/29 01:19:12;;;;;;;3.80;3.50;;;;;;;;;;5034724;28;20210;-88
2022/07/29 01:21:52;;;;;;;3.25;3.03;;;;;;;;;;5043733;28;20221;-87
2022/07/29 01:24:34;;;;;;;3.22;3.03;;;;;;;;;;5034001;28;20201;-87
2022/07/29 01:27:06;;;;;;;3.45;3.15;;;;;;;;;;5040247;28;20206;-87
2022/07/29 01:29:40;;;;;;;3.80;3.30;;;;;;;;;;5045315;28;20205;-87
2022/07/29 01:32:12;;;;;;;3.53;3.22;;;;;;;;;;5038865;28;20225;-87
2022/07/29 01:34:47;;;;;;;4.15;3.60;;;;;;;;;;5046584;28;20205;-87
2022/07/29 01:37:20;;;;;;;3.85;3.30;;;;;;;;;;5033319;28;20318;-86
2022/07/29 01:39:49;;;;;;;3.67;3.35;;;;;;;;;;5034592;28;20230;-87
2022/07/29 01:42:23;;;;;;;3.50;3.30;;;;;;;;;;5038464;28;20241;-87
2022/07/29 01:45:06;;;;;;;3.40;3.20;;;;;;;;;;5045851;28;20205;-87
2022/07/29 01:47:45;;;;;;;3.13;2.90;;;;;;;;;;5032992;28;20237;-87
2022/07/29 01:50:17;;;;;;;3.42;3.13;;;;;;;;;;5033350;28;20205;-86
2022/07/29 01:52:53;;;;;;;4.50;3.45;;;;;;;;;;5039416;28;20257;-87
2022/07/29 01:55:33;;;;;;;3.45;3.25;;;;;;;;;;5044420;28;20216;-87
2022/07/29 01:58:07;;;;;;;3.50;3.20;;;;;;;;;;5041587;28;20270;-87
2022/07/29 02:00:41;;;;;;;3.70;3.33;;;;;;;;;;5035671;28;20213;-86
2022/07/29 02:03:11;;;;;;;3.50;3.20;;;;;;;;;;5032572;28;20248;-87
2022/07/29 02:05:43;;;;;;;3.38;3.08;;;;;;;;;;5050255;28;20216;-87
2022/07/29 02:08:21;;;;;;;3.58;3.38;;;;;;;;;;5051404;28;20205;-87
2022/07/29 02:11:05;;;;;;;3.38;3.10;;;;;;;;;;5050092;28;20591;-87
2022/07/29 02:13:42;;;;;;;3.78;3.47;;;;;;;;;;5044713;28;20221;-87
2022/07/29 02:16:11;;;;;;;4.28;3.70;;;;;;;;;;5040950;28;20344;-87
2022/07/29 02:18:41;;;;;;;3.15;2.95;;;;;;;;;;5052335;28;20231;-88
2022/07/29 02:21:21;;;;;;;3.50;3.20;;;;;;;;;;5039121;28;20332;-87
2022/07/29 02:24:17;;;;;;;3.00;2.80;;;;;;;;;;5058098;28;20205;-87
2022/07/29 02:27:10;;;;;;;;;;;;;;;;;;;;;
2022/07/29 02:29:39;;;;;;;3.47;3.17;;;;;;;;;;5049054;28;20219;-87
2022/07/29 02:32:09;;;;;;;3.75;3.45;;;;;;;;;;5045528;28;20230;-87
2022/07/29 02:34:37;;;;;;;3.30;3.10;;;;;;;;;;5042990;28;20212;-87
2022/07/29 02:37:09;;;;;;;3.35;3.15;;;;;;;;;;5048566;28;20275;-86
2022/07/29 02:39:36;;;;;;;3.05;2.85;;;;;;;;;;5047133;28;20217;-87
2022/07/29 02:42:10;;;;;;;3.13;2.90;;;;;;;;;;5044438;28;20252;-87
2022/07/29 02:44:40;;;;;;;3.20;3.00;;;;;;;;;;5053406;28;20206;-88
2022/07/29 02:47:15;;;;;;;3.53;3.05;;;;;;;;;;5054221;28;20205;-86
2022/07/29 02:49:44;;;;;;;3.00;2.80;;;;;;;;;;5052508;28;20247;-87
2022/07/29 02:52:14;;;;;;;3.28;2.97;;;;;;;;;;5049646;28;20221;-87
2022/07/29 02:54:44;;;;;;;3.30;2.90;;;;;;;;;;5039773;28;20288;-87
2022/07/29 02:57:21;;;;;;;2.67;2.53;;;;;;;;;;5039150;28;20206;-87
2022/07/29 02:59:50;;;;;;;3.15;2.95;;;;;;;;;;5038731;28;20225;-87
2022/07/29 03:02:21;;;;;;;3.13;2.83;;;;;;;;;;5039222;28;20237;-87
2022/07/29 03:04:49;;;;;;;3.00;2.80;;;;;;;;;;5050660;28;20232;-87
2022/07/29 03:07:17;;;;;;;3.55;3.30;;;;;;;;;;5044867;28;20255;-87
2022/07/29 03:09:51;;;;;;;3.05;2.85;;;;;;;;;;5051424;28;20210;-88
2022/07/29 03:12:19;;;;;;;3.20;3.00;;;;;;;;;;5044130;28;20229;-86
2022/07/29 03:14:48;;;;;;;3.08;2.88;;;;;;;;;;5058528;28;20216;-87
2022/07/29 03:17:16;;;;;;;3.00;2.80;;;;;;;;;;5058454;28;20212;-87
2022/07/29 03:19:45;;;;;;;3.20;3.00;;;;;;;;;;5057539;28;20659;-87
2022/07/29 03:22:16;;;;;;;2.90;2.70;;;;;;;;;;5042790;28;20222;-88
2022/07/29 03:27:52;;;;;;;2.92;2.72;;;;;;;;;;5056587;28;20307;-88
2022/07/29 03:33:24;;;;;;;2.88;2.67;;;;;;;;;;5031692;28;20228;-87
2022/07/29 03:36:05;;;;;;;3.08;2.88;;;;;;;;;;5054761;28;20205;-87
2022/07/29 03:38:58;;;;;;;3.03;2.83;;;;;;;;;;5036862;28;20214;-86
2022/07/29 03:41:45;;;;;;;2.95;2.75;;;;;;;;;;5047463;28;20212;-86
2022/07/29 03:47:17;;;;;;;3.55;3.25;;;;;;;;;;5043922;28;20205;-87
2022/07/29 03:52:51;;;;;;;2.90;2.70;;;;;;;;;;5035792;28;20230;-87
2022/07/29 03:55:24;;;;;;;2.70;2.50;;;;;;;;;;5038697;28;20213;-87
2022/07/29 03:58:06;;;;;;;2.90;2.70;;;;;;;;;;5035371;28;20213;-87
2022/07/29 04:04:00;;;;;;;3.30;3.10;;;;;;;;;;5036750;28;20233;-87
2022/07/29 04:06:31;;;;;;;2.92;2.72;;;;;;;;;;5008084;28;20258;-87
2022/07/29 04:09:00;;;;;;;2.90;2.70;;;;;;;;;;5045602;28;20201;-86
2022/07/29 04:11:30;;;;;;;2.83;2.63;;;;;;;;;;5037532;28;20209;-87
2022/07/29 04:13:59;;;;;;;2.85;2.65;;;;;;;;;;5037404;28;20198;-87
2022/07/29 04:16:30;;;;;;;3.10;2.80;;;;;;;;;;5053825;28;20205;-87
2022/07/29 04:18:59;;;;;;;3.10;2.80;;;;;;;;;;5053578;28;20228;-87
2022/07/29 04:21:56;;;;;;;2.85;2.65;;;;;;;;;;5033900;28;20740;-87
2022/07/29 04:25:08;;;;;;;2.92;2.72;;;;;;;;;;4979217;28;20239;-86
2022/07/29 04:28:14;;;;;;;3.10;2.90;;;;;;;;;;4984170;28;20230;-86
2022/07/29 04:37:23;;;;;;;3.22;2.83;;;;;;;;;;4979830;28;20204;-87
2022/07/29 04:39:58;;;;;;;3.22;2.90;;;;;;;;;;5068875;28;20224;-88
2022/07/29 04:42:36;;;;;;;3.05;2.83;;;;;;;;;;5070023;23;20232;-83
2022/07/29 04:45:15;;;;;;;2.92;2.72;;;;;;;;;;5057684;28;20230;-85
2022/07/29 04:47:45;;;;;;;2.83;2.63;;;;;;;;;;5049035;28;20201;-86
2022/07/29 04:50:21;;;;;;;2.92;2.60;;;;;;;;;;5050842;28;20193;-86
2022/07/29 04:52:56;;;;;;;2.88;2.60;;;;;;;;;;5041631;28;20587;-85
2022/07/29 05:04:28;;;;;;;4.80;2.95;;;;;;;;;;4957027;28;20259;-86
2022/07/29 05:07:02;;;;;;;3.60;2.92;;;;;;;;;;4957167;28;20271;-86
2022/07/29 05:09:32;;;;;;;3.10;2.38;;;;;;;;;;4946919;28;20228;-85
2022/07/29 05:11:59;;;;;;;3.33;2.80;;;;;;;;;;4956261;28;20234;-86
2022/07/29 05:14:28;;;;;;;3.28;2.67;;;;;;;;;;4958371;28;20670;-86
2022/07/29 05:16:56;;;;;;;2.75;2.55;;;;;;;;;;4961724;28;20204;-84
2022/07/29 05:19:27;;;;;;;2.70;2.50;;;;;;;;;;4964395;28;20224;-86
2022/07/29 05:22:01;;;;;;;3.88;2.65;;;;;;;;;;4969623;28;20204;-85
2022/07/29 05:24:28;;;;;;;4.20;2.83;;;;;;;;;;4957325;28;20256;-85
2022/07/29 05:27:02;;;;;;;2.88;2.67;;;;;;;;;;4957697;28;20200;-85
2022/07/29 05:29:29;;;;;;;3.42;2.75;;;;;;;;;;4963913;28;20212;-85
2022/07/29 05:31:57;;;;;;;2.63;2.42;;;;;;;;;;4961238;28;20216;-84
2022/07/29 05:34:24;;;;;;;2.63;2.42;;;;;;;;;;4945256;28;20571;-85
2022/07/29 05:36:52;;;;;;;2.40;2.22;;;;;;;;;;4944359;28;20211;-84
2022/07/29 05:39:19;;;;;;;3.38;2.50;;;;;;;;;;4945888;28;20296;-86
2022/07/29 05:41:49;;;;;;;2.45;2.25;;;;;;;;;;4988584;28;20211;-85
2022/07/29 05:44:25;;;;;;;2.58;2.30;;;;;;;;;;5024448;28;20249;-86
2022/07/29 05:47:12;;;;;;;2.70;2.50;;;;;;;;;;5026465;28;20202;-86
2022/07/29 05:49:41;;;;;;;2.55;2.35;;;;;;;;;;5015547;28;20297;-86
2022/07/29 05:52:09;;;;;;;2.28;2.08;;;;;;;;;;5022570;28;20225;-86
2022/07/29 05:54:38;;;;;;;2.58;2.38;;;;;;;;;;5018680;28;20202;-85
2022/07/29 05:57:10;;;;;;;2.75;2.55;;;;;;;;;;5027973;28;20213;-86
2022/07/29 05:59:58;;;;;;;2.47;2.28;;;;;;;;;;5023425;28;20225;-86
2022/07/29 06:02:30;;;;;;;2.78;2.58;;;;;;;;;;5030216;28;20222;-86
2022/07/29 06:05:05;;;;;;;2.90;2.70;;;;;;;;;;5026898;28;20202;-85
2022/07/29 06:13:08;;;;;;;3.00;2.80;;;;;;;;;;5031887;28;20306;-84
2022/07/29 06:15:39;;;;;;;2.83;2.58;;;;;;;;;;5035155;28;20202;-84
2022/07/29 06:18:27;;;;;;;3.13;2.80;;;;;;;;;;5035201;28;20225;-85
2022/07/29 06:20:56;;;;;;;3.20;2.92;;;;;;;;;;5025508;28;20229;-86
2022/07/29 06:23:26;;;;;;;4.03;2.67;;;;;;;;;;5037799;28;20259;-85
2022/07/29 06:25:53;;;;;;;3.05;2.75;;;;;;;;;;5050493;28;20212;-85
2022/07/29 06:28:21;;;;;;;3.92;2.80;;;;;;;;;;5038336;28;20237;-85
2022/07/29 06:30:54;;;;;;;2.70;2.50;;;;;;;;;;5041183;28;20217;-87
2022/07/29 06:33:21;;;;;;;2.80;2.53;;;;;;;;;;5035222;28;20224;-87
2022/07/29 06:35:49;;;;;;;3.30;2.70;;;;;;;;;;5033742;28;20232;-88
2022/07/29 06:38:17;;;;;;;3.05;2.65;;;;;;;;;;5037892;28;20280;-86
2022/07/29 06:41:01;;;;;;;3.20;2.90;;;;;;;;;;5043197;28;20264;-83
2022/07/29 06:43:31;;;;;;;2.90;2.70;;;;;;;;;;5050037;28;20224;-85
2022/07/29 06:46:05;;;;;;;3.30;3.00;;;;;;;;;;5050242;28;20265;-85
2022/07/29 06:48:33;;;;;;;3.30;3.00;;;;;;;;;;5037462;28;20206;-85
2022/07/29 06:51:01;;;;;;;3.40;3.10;;;;;;;;;;5051897;28;20205;-85
2022/07/29 06:53:33;;;;;;;2.97;2.78;;;;;;;;;;5046586;28;20228;-85
2022/07/29 06:56:04;;;;;;;4.30;3.00;;;;;;;;;;5034738;28;20210;-84
2022/07/29 06:58:48;;;;;;;3.70;2.90;;;;;;;;;;5035165;28;20229;-85
2022/07/29 07:01:29;;;;;;;2.85;2.65;;;;;;;;;;5028265;28;20222;-85
2022/07/29 07:04:02;;;;;;;3.30;3.00;;;;;;;;;;5031443;28;20217;-84
2022/07/29 07:06:44;;;;;;;3.55;3.22;;;;;;;;;;5029851;28;20289;-85
2022/07/29 07:09:13;;;;;;;3.30;3.08;;;;;;;;;;5027573;28;20202;-85
2022/07/29 07:11:43;;;;;;;3.13;2.92;;;;;;;;;;5034744;28;20201;-86
2022/07/29 07:14:47;;;;;;;;;;;;;;;;;;;;;
2022/07/29 07:17:43;;;;;;;;;;;;;;;;;;;;;
2022/07/29 08:27:58;;;;;;;4.28;3.60;;;;;;;;;;5034351;28;20236;-89
2022/07/29 08:30:32;;;;;;;3.65;3.35;;;;;;;;;;5039722;28;20202;-90
2022/07/29 08:33:21;;;;;;;3.90;3.60;;;;;;;;;;5031856;28;20229;-89
2022/07/29 08:35:50;;;;;;;3.70;3.30;;;;;;;;;;5034468;28;20678;-90
2022/07/29 08:41:11;;;;;;;4.15;3.40;;;;;;;;;;5034887;28;20229;-89
2022/07/29 08:43:56;;;;;;;3.67;3.38;;;;;;;;;;5038067;28;20240;-90
2022/07/29 08:49:42;;;;;;;3.60;3.30;;;;;;;;;;4955512;28;20255;-87
2022/07/29 08:52:13;;;;;;;3.88;3.58;;;;;;;;;;5029947;28;20214;-88
2022/07/29 08:54:45;;;;;;;4.95;3.70;;;;;;;;;;5039882;28;20225;-89
2022/07/29 08:57:14;;;;;;;4.85;3.33;;;;;;;;;;5033766;28;20202;-88
2022/07/29 08:59:43;;;;;;;3.72;3.42;;;;;;;;;;5034971;28;20233;-88
2022/07/29 09:02:14;;;;;;;3.65;3.35;;;;;;;;;;5036430;28;20258;-88
2022/07/29 09:04:43;;;;;;;4.07;3.60;;;;;;;;;;5033075;28;20210;-89
2022/07/29 09:07:11;;;;;;;3.95;3.60;;;;;;;;;;5032743;28;20255;-88
2022/07/29 09:09:39;;;;;;;4.15;3.50;;;;;;;;;;5032545;28;20221;-88
2022/07/29 09:12:16;;;;;;;3.92;3.63;;;;;;;;;;5030212;28;20226;-88
2022/07/29 09:14:47;;;;;;;3.92;3.60;;;;;;;;;;5031055;28;20198;-87
2022/07/29 09:17:17;;;;;;;3.75;3.45;;;;;;;;;;5026837;28;20219;-88
2022/07/29 09:19:53;;;;;;;4.30;3.38;;;;;;;;;;5038438;28;20201;-88
2022/07/29 09:22:35;;;;;;;4.25;3.85;;;;;;;;;;5032691;28;20229;-88
2022/07/29 09:25:03;;;;;;;3.70;3.40;;;;;;;;;;5032468;28;20198;-88
2022/07/29 09:27:39;;;;;;;4.38;3.50;;;;;;;;;;5032448;28;20222;-88
2022/07/29 09:30:07;;;;;;;3.60;3.35;;;;;;;;;;5032122;28;20623;-88
2022/07/29 09:32:36;;;;;;;4.18;3.88;;;;;;;;;;5028260;28;20302;-87
2022/07/29 09:35:18;;;;;;;4.05;3.75;;;;;;;;;;5032718;28;20607;-87
2022/07/29 09:37:46;;;;;;;4.10;3.80;;;;;;;;;;5025647;28;20667;-88
2022/07/29 09:40:15;;;;;;;3.88;3.53;;;;;;;;;;5032392;28;20612;-87
2022/07/29 09:42:44;;;;;;;7.18;4.20;;;;;;;;;;5036792;28;20222;-88
2022/07/29 09:45:27;;;;;;;4.30;4.00;;;;;;;;;;5032927;28;20229;-87
2022/07/29 09:48:00;;;;;;;4.40;3.70;;;;;;;;;;5032987;28;20233;-88
2022/07/29 09:50:40;;;;;;;4.38;3.97;;;;;;;;;;5030744;28;20190;-88
2022/07/29 09:53:09;;;;;;;4.63;3.63;;;;;;;;;;5034811;28;20217;-87
2022/07/29 09:55:47;;;;;;;4.22;3.72;;;;;;;;;;5033572;28;20666;-88
2022/07/29 09:58:19;;;;;;;3.92;3.40;;;;;;;;;;5032041;28;20293;-88
2022/07/29 10:01:06;;;;;;;5.38;3.97;;;;;;;;;;5029805;28;20221;-88
2022/07/29 10:03:34;;;;;;;4.20;3.90;;;;;;;;;;5032067;28;20229;-88
2022/07/29 10:06:10;;;;;;;4.10;3.80;;;;;;;;;;5032355;28;20209;-87
2022/07/29 10:08:43;;;;;;;4.60;4.20;;;;;;;;;;5032320;28;20213;-89
2022/07/29 10:11:23;;;;;;;4.45;4.05;;;;;;;;;;5034937;28;20210;-88
2022/07/29 10:23:15;;;;;;;4.75;4.18;;;;;;;;;;4938761;28;20301;-87
2022/07/29 10:25:47;;;;;;;4.35;3.75;;;;;;;;;;5030414;28;20206;-88
2022/07/29 10:28:15;;;;;;;4.80;4.40;;;;;;;;;;5037964;28;20221;-88
2022/07/29 10:30:44;;;;;;;5.13;4.65;;;;;;;;;;5035990;28;20202;-87
2022/07/29 10:33:51;;;;;;;5.10;4.70;;;;;;;;;;5035507;28;20216;-87
2022/07/29 10:36:34;;;;;;;4.50;4.20;;;;;;;;;;5035199;28;20194;-88
2022/07/29 10:39:18;;;;;;;4.75;4.20;;;;;;;;;;5041664;28;20197;-86
2022/07/29 10:42:01;;;;;;;5.00;4.30;;;;;;;;;;5038731;28;20225;-88
2022/07/29 10:44:39;;;;;;;4.97;4.53;;;;;;;;;;5052630;23;20585;-86
2022/07/29 10:47:07;;;;;;;4.82;4.43;;;;;;;;;;5019532;28;20213;-86
2022/07/29 10:49:37;;;;;;;5.35;4.63;;;;;;;;;;5016842;28;20206;-86
2022/07/29 10:52:09;;;;;;;8.05;6.00;;;;;;;;;;5028182;28;20194;-86
2022/07/29 10:55:10;;;;;;;6.70;5.20;;;;;;;;;;5030245;28;20305;-86
2022/07/29 10:57:43;;;;;;;5.80;5.13;;;;;;;;;;4973684;28;20305;-86
2022/07/29 11:00:34;;;;;;;6.22;5.18;;;;;;;;;;4978198;28;20290;-87
2022/07/29 11:03:02;;;;;;;6.13;4.80;;;;;;;;;;4937054;28;20225;-87
2022/07/29 11:05:31;;;;;;;7.45;5.15;;;;;;;;;;4978612;28;20219;-87
2022/07/29 11:08:17;;;;;;;6.30;5.40;;;;;;;;;;4974586;28;20319;-86
2022/07/29 11:10:55;;;;;;;5.70;5.10;;;;;;;;;;4965652;28;20211;-88
2022/07/29 11:13:45;;;;;;;6.53;5.30;;;;;;;;;;4974785;28;20220;-86
2022/07/29 11:16:17;;;;;;;7.32;5.25;;;;;;;;;;4974894;28;20231;-86
2022/07/29 11:19:06;;;;;;;5.40;4.90;;;;;;;;;;4973879;28;20207;-86
2022/07/29 11:21:40;;;;;;;6.05;4.78;;;;;;;;;;4973715;28;20338;-86
2022/07/29 11:24:15;;;;;;;5.57;5.07;;;;;;;;;;4971270;28;20222;-85
2022/07/29 11:26:47;;;;;;;6.22;4.75;;;;;;;;;;4974832;28;20203;-86
2022/07/29 11:29:23;;;;;;;7.63;4.97;;;;;;;;;;4967552;28;20215;-86
2022/07/29 11:31:55;;;;;;;5.60;5.00;;;;;;;;;;4965196;28;20200;-86
2022/07/29 11:34:24;;;;;;;4.82;4.43;;;;;;;;;;4988500;28;20222;-85
2022/07/29 11:37:11;;;;;;;4.75;4.28;;;;;;;;;;5011134;28;20230;-85
2022/07/29 11:39:41;;;;;;;4.90;4.40;;;;;;;;;;5018323;28;20232;-86
2022/07/29 11:42:27;;;;;;;5.35;4.85;;;;;;;;;;5013840;28;20218;-85
2022/07/29 11:45:01;;;;;;;4.93;4.43;;;;;;;;;;5012835;28;20265;-86
2022/07/29 11:47:31;;;;;;;5.40;4.90;;;;;;;;;;5007334;28;20193;-85
2022/07/29 11:49:59;;;;;;;4.78;4.32;;;;;;;;;;5015950;28;20215;-85
2022/07/29 11:52:33;;;;;;;4.78;4.35;;;;;;;;;;5014484;28;20211;-85
2022/07/29 11:55:03;;;;;;;4.65;4.25;;;;;;;;;;5016224;28;20276;-85
2022/07/29 11:57:33;;;;;;;4.68;4.30;;;;;;;;;;5015597;28;20218;-85
2022/07/29 12:00:10;;;;;;;4.53;4.15;;;;;;;;;;5015643;28;20268;-85
2022/07/29 12:02:46;;;;;;;4.85;4.45;;;;;;;;;;5015238;28;20229;-86
2022/07/29 12:05:14;;;;;;;4.53;4.13;;;;;;;;;;5012497;28;20208;-85
2022/07/29 12:07:48;;;;;;;4.78;4.38;;;;;;;;;;5005137;28;20257;-85
2022/07/29 12:10:22;;;;;;;4.80;4.40;;;;;;;;;;5011457;28;20202;-88
2022/07/29 12:12:53;;;;;;;4.90;4.55;;;;;;;;;;5007695;28;20708;-87
2022/07/29 12:15:26;;;;;;;4.80;4.43;;;;;;;;;;5019540;28;20214;-88
2022/07/29 12:21:26;;;;;;;14.93;5.78;;;;;;;;;;5021601;28;20213;-86
2022/07/29 12:30:33;;;;;;;5.07;4.57;;;;;;;;;;4967855;28;20291;-87
2022/07/29 12:36:20;;;;;;;5.15;4.63;;;;;;;;;;5019110;28;20198;-86
2022/07/29 12:38:58;;;;;;;5.63;5.00;;;;;;;;;;5017816;28;20194;-88
2022/07/29 12:41:28;;;;;;;10.30;5.90;;;;;;;;;;5018290;28;20229;-87
2022/07/29 12:44:06;;;;;;;7.85;5.85;;;;;;;;;;5018998;28;20237;-86
2022/07/29 12:47:23;;;;;;;9.70;6.35;;;;;;;;;;5018372;28;20302;-85
2022/07/29 12:50:14;;;;;;;9.88;5.78;;;;;;;;;;5025750;28;20268;-84
2022/07/29 12:52:43;;;;;;;10.18;5.78;;;;;;;;;;5028404;28;20201;-84
2022/07/29 12:55:16;;;;;;;9.73;5.85;;;;;;;;;;5026791;28;20329;-84
2022/07/29 12:58:03;;;;;;;8.68;6.10;;;;;;;;;;5026163;28;20678;-85
2022/07/29 13:00:32;;;;;;;8.65;5.65;;;;;;;;;;5021305;28;20218;-84
2022/07/29 13:03:02;;;;;;;7.45;6.05;;;;;;;;;;5025027;28;20226;-84
2022/07/29 13:05:43;;;;;;;6.32;5.38;;;;;;;;;;5026124;28;20197;-84
2022/07/29 13:08:15;;;;;;;8.45;5.70;;;;;;;;;;5019219;28;20280;-84
2022/07/29 13:10:49;;;;;;;7.53;5.40;;;;;;;;;;5017315;28;20301;-84
2022/07/29 13:13:17;;;;;;;7.20;5.53;;;;;;;;;;5015596;28;20237;-84
2022/07/29 13:15:46;;;;;;;5.80;5.28;;;;;;;;;;5015657;28;20222;-83
2022/07/29 13:18:29;;;;;;;7.22;5.10;;;;;;;;;;5023507;28;20717;-83
2022/07/29 13:21:13;;;;;;;8.00;5.38;;;;;;;;;;5023496;28;20217;-86
2022/07/29 13:23:43;;;;;;;6.60;5.40;;;;;;;;;;5009026;28;20282;-84
2022/07/29 13:26:16;;;;;;;6.43;5.80;;;;;;;;;;5023613;28;20293;-84
2022/07/29 13:28:45;;;;;;;6.32;5.15;;;;;;;;;;5023615;28;20209;-84
2022/07/29 13:31:13;;;;;;;6.18;5.15;;;;;;;;;;5020759;28;20208;-83
2022/07/29 13:33:40;;;;;;;6.18;5.00;;;;;;;;;;5019326;28;20226;-84
2022/07/29 13:36:08;;;;;;;5.13;4.63;;;;;;;;;;5018540;28;20563;-84
2022/07/29 13:38:35;;;;;;;5.82;4.82;;;;;;;;;;5025821;28;20213;-85
2022/07/29 13:41:04;;;;;;;7.40;5.63;;;;;;;;;;5018647;28;20203;-84
2022/07/29 13:43:32;;;;;;;7.13;4.88;;;;;;;;;;5019710;28;20244;-83
2022/07/29 13:45:59;;;;;;;5.72;4.55;;;;;;;;;;5022713;28;20284;-84
2022/07/29 13:48:26;;;;;;;8.40;5.85;;;;;;;;;;5028181;28;20294;-84
2022/07/29 13:50:54;;;;;;;5.50;4.22;;;;;;;;;;5016036;28;20218;-84
2022/07/29 13:53:21;;;;;;;5.88;4.45;;;;;;;;;;5019369;28;20688;-84
2022/07/29 13:55:48;;;;;;;6.20;4.55;;;;;;;;;;5024048;28;20650;-84
2022/07/29 13:58:17;;;;;;;6.32;4.45;;;;;;;;;;5015280;28;20203;-85
2022/07/29 14:00:51;;;;;;;5.40;4.45;;;;;;;;;;5010462;28;20227;-85
2022/07/29 14:03:20;;;;;;;5.82;4.22;;;;;;;;;;5018431;28;20222;-85
2022/07/29 14:05:47;;;;;;;5.05;4.55;;;;;;;;;;5022041;28;20206;-83
2022/07/29 14:08:15;;;;;;;5.80;4.78;;;;;;;;;;5031990;28;20236;-84
2022/07/29 14:10:43;;;;;;;5.22;4.72;;;;;;;;;;5025536;28;20210;-83
2022/07/29 14:13:11;;;;;;;6.32;5.40;;;;;;;;;;5010807;28;20219;-85
2022/07/29 14:15:51;;;;;;;4.90;4.50;;;;;;;;;;5021081;28;20651;-86
2022/07/29 14:18:23;;;;;;;5.45;4.60;;;;;;;;;;5030475;28;20201;-84
2022/07/29 14:20:50;;;;;;;4.80;4.40;;;;;;;;;;5020439;28;20202;-85
2022/07/29 14:23:22;;;;;;;5.40;5.00;;;;;;;;;;5024121;28;20285;-85
2022/07/29 14:25:50;;;;;;;5.35;4.88;;;;;;;;;;5015018;28;20214;-85
2022/07/29 14:28:17;;;;;;;5.35;4.90;;;;;;;;;;5025425;28;20202;-85
2022/07/29 14:30:46;;;;;;;5.38;4.88;;;;;;;;;;5020792;28;20206;-85
2022/07/29 14:33:13;;;;;;;5.50;4.65;;;;;;;;;;5032968;28;20222;-87
2022/07/29 14:35:49;;;;;;;5.38;4.80;;;;;;;;;;5022436;28;20284;-89
2022/07/29 14:38:19;;;;;;;6.30;4.60;;;;;;;;;;5009173;28;20202;-88
2022/07/29 15:26:26;;;;;;;5.00;4.70;;;;;;;;;;4974856;28;20202;-86
2022/07/29 15:38:10;;;;;;;3.42;3.13;;;;;;;;;;4950603;28;20299;-87
2022/07/29 15:40:55;;;;;;;3.03;2.72;;;;;;;;;;4954513;28;20216;-86
2022/07/29 15:51:39;;;;;;;4.07;3.40;;;;;;;;;;5047496;28;20201;-88
2022/07/29 15:54:24;;;;;;;3.60;3.05;;;;;;;;;;5032867;28;20222;-88
2022/07/29 15:57:16;;;;;;;3.17;2.95;;;;;;;;;;5028548;28;20224;-88
2022/07/29 16:05:42;;;;;;;3.05;2.50;;;;;;;;;;5026432;28;20217;-87
2022/07/29 16:08:25;;;;;;;2.70;2.50;;;;;;;;;;5029270;28;20261;-89
2022/07/29 16:10:56;;;;;;;2.55;2.35;;;;;;;;;;5034843;28;20218;-88
2022/07/29 16:13:36;;;;;;;2.40;2.20;;;;;;;;;;5031529;28;20218;-87
2022/07/29 16:16:17;;;;;;;3.38;2.33;;;;;;;;;;5028246;28;20201;-88
2022/07/29 16:18:55;;;;;;;2.80;2.58;;;;;;;;;;5032553;28;20206;-88
2022/07/29 16:24:17;;;;;;;2.40;2.13;;;;;;;;;;5031687;28;20230;-88
2022/07/29 16:26:47;;;;;;;3.45;2.53;;;;;;;;;;5033990;28;20217;-88
2022/07/29 16:29:18;;;;;;;2.70;2.50;;;;;;;;;;5033426;28;20206;-89
2022/07/29 16:34:34;;;;;;;3.28;3.08;;;;;;;;;;5026095;28;20233;-88
2022/07/29 16:37:08;;;;;;;3.50;3.20;;;;;;;;;;5032871;28;20202;-88
2022/07/29 16:39:46;;;;;;;3.40;3.10;;;;;;;;;;5030344;28;20267;-88
2022/07/29 16:42:16;;;;;;;3.30;3.00;;;;;;;;;;5033780;28;20271;-89
2022/07/29 21:34:36;;;;;;;4.57;3.25;;;;;;;;;;5029767;28;20225;-87
2022/07/29 21:37:22;;;;;;;3.35;2.90;;;;;;;;;;5033952;28;20226;-87
2022/07/29 21:42:56;;;;;;;4.05;3.50;;;;;;;;;;5004213;28;20225;-88
2022/07/29 21:51:16;;;;;;;4.20;3.50;;;;;;;;;;5019188;28;20205;-91
2022/07/29 21:53:43;;;;;;;3.88;3.20;;;;;;;;;;5032519;28;20222;-90
2022/07/29 21:56:12;;;;;;;3.83;3.25;;;;;;;;;;5033205;28;20229;-88
2022/07/29 21:58:47;;;;;;;3.65;3.13;;;;;;;;;;5032212;28;20209;-90
2022/07/29 22:01:43;;;;;;;3.63;3.33;;;;;;;;;;5031110;28;20200;-91
2022/07/29 22:04:14;;;;;;;3.72;3.50;;;;;;;;;;5028455;28;20238;-90
2022/07/29 22:07:08;;;;;;;4.55;3.50;;;;;;;;;;5025536;28;20228;-91
2022/07/29 22:16:36;;;;;;;3.90;3.60;;;;;;;;;;4925680;29;20213;-90
2022/07/29 22:19:28;;;;;;;4.30;4.00;;;;;;;;;;4951394;29;20271;-90
2022/07/29 22:22:22;;;;;;;3.90;3.60;;;;;;;;;;4952226;29;20306;-91
2022/07/29 22:25:24;;;;;;;3.97;3.67;;;;;;;;;;4927884;29;20236;-90
2022/07/29 22:41:57;;;;;;;4.20;3.80;;;;;;;;;;5033044;28;20755;-89
2022/07/29 22:44:31;;;;;;;4.10;3.70;;;;;;;;;;5039858;28;20235;-90
2022/07/29 22:46:58;;;;;;;4.25;3.83;;;;;;;;;;5045342;28;20197;-89
2022/07/29 22:49:26;;;;;;;3.92;3.63;;;;;;;;;;5054607;28;20267;-88
2022/07/29 22:51:59;;;;;;;4.45;4.05;;;;;;;;;;5045503;28;20275;-89
2022/07/29 22:54:29;;;;;;;4.38;4.00;;;;;;;;;;5055124;28;20221;-90
2022/07/29 22:57:00;;;;;;;3.92;3.40;;;;;;;;;;5048789;28;20205;-90
2022/07/29 22:59:38;;;;;;;4.07;3.78;;;;;;;;;;5037460;28;20213;-89
2022/07/29 23:02:35;;;;;;;4.03;3.72;;;;;;;;;;5035562;28;20198;-88
2022/07/29 23:05:08;;;;;;;4.15;3.83;;;;;;;;;;5032747;28;20229;-89
2022/07/29 23:07:35;;;;;;;4.20;3.80;;;;;;;;;;5035802;28;20237;-89
2022/07/29 23:10:02;;;;;;;3.90;3.38;;;;;;;;;;5035681;28;20209;-89
2022/07/29 23:12:31;;;;;;;3.90;3.60;;;;;;;;;;5045976;28;20205;-89
2022/07/29 23:14:59;;;;;;;3.78;3.50;;;;;;;;;;5037737;28;20230;-88
2022/07/29 23:17:28;;;;;;;3.85;3.45;;;;;;;;;;5034750;28;20210;-88
2022/07/29 23:19:55;;;;;;;4.05;3.45;;;;;;;;;;5049220;28;20254;-89
2022/07/29 23:22:22;;;;;;;4.20;3.80;;;;;;;;;;5054774;28;20215;-88
2022/07/29 23:24:50;;;;;;;4.25;3.85;;;;;;;;;;5054063;28;20236;-89
2022/07/29 23:27:19;;;;;;;4.18;3.78;;;;;;;;;;5054263;28;20209;-89
2022/07/29 23:29:48;;;;;;;4.00;3.70;;;;;;;;;;5055053;28;20208;-87
2022/07/29 23:32:18;;;;;;;3.88;3.58;;;;;;;;;;5044106;28;20208;-89
2022/07/29 23:34:46;;;;;;;4.15;3.65;;;;;;;;;;5041799;28;20248;-89
2022/07/29 23:37:13;;;;;;;3.88;3.58;;;;;;;;;;5041506;28;20205;-89
2022/07/29 23:39:43;;;;;;;4.30;3.92;;;;;;;;;;5033559;28;20236;-89
2022/07/29 23:42:19;;;;;;;3.97;3.67;;;;;;;;;;5034817;28;20217;-88
2022/07/29 23:44:51;;;;;;;4.47;4.07;;;;;;;;;;5039746;28;20228;-89
2022/07/29 23:47:21;;;;;;;3.90;3.50;;;;;;;;;;5047612;28;20209;-89
2022/07/29 23:49:49;;;;;;;4.40;4.10;;;;;;;;;;5035166;28;20260;-89
2022/07/29 23:54:57;;;;;;;4.25;3.75;;;;;;;;;;5205388;23;20617;-89
2022/07/29 23:57:26;;;;;;;4.20;3.90;;;;;;;;;;5055396;28;20256;-88
2022/07/29 23:59:58;;;;;;;4.22;3.92;;;;;;;;;;5068335;28;20211;-89
